Airport ID:KVUF
Update Time (UTC):21/02/2024 18:18
Wind Speed (Knots):10
Wind Direction (Magnetic):200
Temperature (°C):26
Dew Point (°C):-4
Humidity (%):14
Altimeter (inHg):29.97
Density Altitude (Feet):3500
Visibility:10+
Clouds (Hundreds of feet):CLR
Present Weather:
METAR:METAR KVUF 211815Z AUTO 20010KT 10SM CLR 26/M04 A2997 RMK A01

The data displayed is for advisory purposes only and is not to be used for flight planning or operations.